KGIF/GIF METAR and TAF weather

Enter ICAO airport designator
Station Type Date Time Source
KGIF METAR 2018/12/11 17:53 UTC NOAA

KGIF 111753Z AUTO 33009KT 10SM CLR 13/04 A3029 RMK AO2 SLP257 T01330039 10133 20067 58013


Station Type Date Time Source
KGIF Decoded METAR 2018/12/11 17:53 UTC NOAA

WINTER HAVENS GILBERT AIRPORT , FL, United States (KGIF) 28-04N 81-45W 43M
Dec 11, 2018 - 12:53 PM EST / 2018.12.11 1753 UTC
Wind: from the NNW (330 degrees) at 10 MPH (9 KT):0
Visibility: 10 mile(s):0
Sky conditions: clear
Temperature: 55.9 F (13.3 C)
Dew Point: 39.0 F (3.9 C)
Relative Humidity: 52%
Pressure (altimeter): 30.29 in. Hg (1025 hPa)
Pressure tendency: 0.04 inches (1.3 hPa) lower than three hours ago
ob: KGIF 111753Z AUTO 33009KT 10SM CLR 13/04 A3029 RMK AO2 SLP257 T01330039 10133 20067 58013
cycle: 18

Station Type Date Time Source
KGIF TAF UTC NOAA

Error!


Example: see airport list